createdAt,value
2022-10-05T00:01:35.260Z,6.50
2022-10-05T00:04:22.193Z,6.50
2022-10-05T00:07:12.486Z,6.50
2022-10-05T00:09:46.370Z,6.40
2022-10-05T00:12:20.725Z,6.40
2022-10-05T00:14:57.791Z,6.40
2022-10-05T00:17:30.769Z,6.40
2022-10-05T00:20:17.323Z,6.40
2022-10-05T00:23:01.302Z,6.40
2022-10-05T00:25:33.049Z,6.40
2022-10-05T00:28:15.625Z,6.40
2022-10-05T00:30:47.413Z,6.40
2022-10-05T00:33:19.165Z,6.40
2022-10-05T00:35:51.258Z,6.40
2022-10-05T00:38:23.044Z,6.40
2022-10-05T00:41:21.861Z,6.40
2022-10-05T00:44:19.468Z,6.40
2022-10-05T00:46:55.117Z,6.40
2022-10-05T00:49:53.492Z,6.40
2022-10-05T00:52:54.605Z,6.40
2022-10-05T00:55:52.867Z,6.40
2022-10-05T00:58:24.548Z,6.40
2022-10-05T01:01:24.058Z,6.40
2022-10-05T01:04:15.968Z,6.40
2022-10-05T01:07:04.816Z,6.50
2022-10-05T01:09:56.680Z,6.40
2022-10-05T01:12:46.980Z,4.50
2022-10-05T01:15:27.481Z,6.50
2022-10-05T01:18:09.307Z,6.60
2022-10-05T01:20:44.108Z,6.50
2022-10-05T01:23:40.631Z,6.60
2022-10-05T01:26:15.211Z,6.60
2022-10-05T01:28:50.918Z,6.70
2022-10-05T01:31:51.886Z,6.80
2022-10-05T01:34:49.262Z,6.80
2022-10-05T01:37:30.418Z,6.80
2022-10-05T01:40:11.948Z,6.90
2022-10-05T01:42:59.974Z,6.90
2022-10-05T01:45:37.215Z,6.90
2022-10-05T01:48:45.588Z,7.00
2022-10-05T01:51:43.008Z,8.70
2022-10-05T01:54:43.686Z,7.10
2022-10-05T01:57:43.126Z,7.10
2022-10-05T02:00:18.259Z,7.20
2022-10-05T02:03:16.069Z,7.20
2022-10-05T02:05:58.550Z,7.20
2022-10-05T02:08:38.812Z,7.20
2022-10-05T02:11:14.729Z,7.20
2022-10-05T02:13:52.883Z,7.20
2022-10-05T02:16:36.368Z,7.30
2022-10-05T02:19:34.112Z,7.20
2022-10-05T02:22:21.964Z,7.20
2022-10-05T02:24:59.285Z,7.20
2022-10-05T02:27:39.144Z,7.10
2022-10-05T02:30:15.649Z,7.10
2022-10-05T02:33:17.590Z,7.10
2022-10-05T02:35:49.505Z,7.10
2022-10-05T02:38:30.972Z,7.10
2022-10-05T02:41:15.921Z,7.10
2022-10-05T02:44:02.386Z,7.10
2022-10-05T02:46:56.988Z,7.10
2022-10-05T02:49:44.947Z,7.10
2022-10-05T02:52:35.530Z,7.00
2022-10-05T02:55:27.672Z,7.00
2022-10-05T02:58:19.933Z,7.00
2022-10-05T03:01:06.010Z,6.90
2022-10-05T03:03:43.054Z,6.90
2022-10-05T03:06:23.160Z,6.90
2022-10-05T03:09:02.633Z,6.90
2022-10-05T03:11:54.106Z,6.90
2022-10-05T03:15:09.445Z,6.90
2022-10-05T03:17:54.293Z,6.90
2022-10-05T03:20:42.512Z,6.90
2022-10-05T03:23:43.373Z,6.80
2022-10-05T03:26:23.953Z,6.80
2022-10-05T03:29:11.027Z,6.80
2022-10-05T03:31:54.715Z,6.80
2022-10-05T03:34:52.556Z,6.80
2022-10-05T03:37:55.501Z,6.80
2022-10-05T03:40:44.714Z,6.80
2022-10-05T03:43:35.366Z,6.80
2022-10-05T03:47:11.856Z,6.90
2022-10-05T03:49:49.552Z,6.90
2022-10-05T03:52:29.866Z,7.00
2022-10-05T03:55:18.507Z,7.00
2022-10-05T03:57:53.275Z,7.00
2022-10-05T04:00:28.458Z,7.00
2022-10-05T04:03:09.063Z,7.10
2022-10-05T04:05:53.676Z,7.00
2022-10-05T04:08:34.298Z,7.00
2022-10-05T04:11:20.468Z,7.00
2022-10-05T04:14:05.080Z,7.00
2022-10-05T04:17:17.592Z,7.00
2022-10-05T04:19:58.980Z,7.00
2022-10-05T04:22:39.019Z,7.00
2022-10-05T04:25:23.911Z,7.00
2022-10-05T04:28:20.356Z,6.90
2022-10-05T04:30:54.573Z,7.30
2022-10-05T04:33:27.725Z,6.90
2022-10-05T04:36:15.947Z,6.90
2022-10-05T04:39:10.859Z,6.90
2022-10-05T04:42:09.091Z,6.90
2022-10-05T04:44:47.207Z,6.90
2022-10-05T04:47:39.282Z,6.80
2022-10-05T04:50:36.763Z,6.80
2022-10-05T04:53:44.456Z,6.80
2022-10-05T04:56:20.506Z,6.80
2022-10-05T04:59:10.165Z,6.80
2022-10-05T05:01:50.943Z,6.80
2022-10-05T05:04:47.164Z,6.80
2022-10-05T05:07:45.988Z,6.80
2022-10-05T05:10:39.711Z,6.80
2022-10-05T05:13:21.770Z,6.80
2022-10-05T05:16:52.055Z,6.80
2022-10-05T05:19:51.922Z,6.80
2022-10-05T05:22:40.854Z,6.80
2022-10-05T05:25:38.621Z,6.80
2022-10-05T05:28:43.602Z,6.80
2022-10-05T05:31:45.735Z,6.90
2022-10-05T05:34:24.148Z,6.80
2022-10-05T05:37:10.726Z,6.90
2022-10-05T05:39:59.292Z,6.90
2022-10-05T05:42:35.545Z,6.90
2022-10-05T05:45:27.465Z,6.90
2022-10-05T05:48:02.949Z,6.90
2022-10-05T05:51:08.694Z,6.90
2022-10-05T05:54:02.955Z,6.90
2022-10-05T05:56:39.071Z,6.90
2022-10-05T05:59:25.967Z,7.00
2022-10-05T06:02:20.243Z,7.00
2022-10-05T06:05:22.039Z,7.10
2022-10-05T06:07:55.925Z,7.10
2022-10-05T06:10:38.513Z,7.20
2022-10-05T06:13:26.344Z,7.30
2022-10-05T06:16:04.094Z,7.40
2022-10-05T06:18:39.860Z,7.50
2022-10-05T06:21:25.850Z,7.60
2022-10-05T06:24:28.945Z,7.70
2022-10-05T06:27:31.752Z,7.70
2022-10-05T06:30:15.108Z,7.80
2022-10-05T06:33:05.023Z,7.90
2022-10-05T06:35:36.844Z,7.90
2022-10-05T06:38:31.002Z,8.00
2022-10-05T06:41:14.644Z,8.00
2022-10-05T06:44:02.027Z,8.00
2022-10-05T06:47:07.481Z,8.20
2022-10-05T06:50:03.979Z,8.20
2022-10-05T06:53:26.009Z,8.40
2022-10-05T06:56:18.915Z,8.60
2022-10-05T06:59:03.824Z,8.70
2022-10-05T07:01:47.392Z,8.90
2022-10-05T07:05:02.777Z,9.10
2022-10-05T07:07:34.761Z,9.20
2022-10-05T07:10:50.355Z,9.30
2022-10-05T07:13:37.550Z,9.40
2022-10-05T07:16:13.965Z,9.60
2022-10-05T07:19:13.616Z,9.70
2022-10-05T07:21:55.630Z,9.80
2022-10-05T07:24:29.233Z,9.90
2022-10-05T07:27:07.300Z,9.90
2022-10-05T07:29:51.338Z,9.90
2022-10-05T07:32:34.397Z,9.90
2022-10-05T07:35:53.602Z,10.00
2022-10-05T07:38:44.193Z,10.10
2022-10-05T07:41:44.043Z,10.20
2022-10-05T07:44:28.399Z,10.30
2022-10-05T07:47:33.889Z,10.30
2022-10-05T07:50:16.217Z,10.50
2022-10-05T07:52:57.435Z,10.70
2022-10-05T07:55:38.727Z,10.90
2022-10-05T07:58:23.453Z,11.10
2022-10-05T08:01:05.220Z,11.30
2022-10-05T08:04:00.517Z,11.40
2022-10-05T08:06:58.615Z,11.50
2022-10-05T08:09:55.046Z,11.60
2022-10-05T08:12:50.972Z,11.70
2022-10-05T08:15:31.701Z,11.80
2022-10-05T08:18:11.669Z,11.90
2022-10-05T08:20:52.494Z,12.10
2022-10-05T08:23:46.372Z,12.10
2022-10-05T08:27:01.149Z,12.30
2022-10-05T08:29:41.329Z,12.50
2022-10-05T08:32:22.781Z,12.70
2022-10-05T08:35:19.118Z,12.80
2022-10-05T08:37:52.141Z,12.90
2022-10-05T08:40:45.153Z,13.00
2022-10-05T08:43:35.350Z,13.00
2022-10-05T08:46:07.655Z,12.90
2022-10-05T08:49:02.278Z,13.00
2022-10-05T08:51:49.858Z,13.10
2022-10-05T08:54:27.350Z,13.30
2022-10-05T08:57:34.870Z,13.40
2022-10-05T09:00:19.397Z,13.50
2022-10-05T09:02:57.426Z,13.60
2022-10-05T09:05:46.875Z,13.70
2022-10-05T09:08:56.502Z,13.80
2022-10-05T09:11:44.669Z,13.80
2022-10-05T09:15:13.662Z,13.90
2022-10-05T09:18:30.804Z,13.90
2022-10-05T09:21:19.533Z,13.90
2022-10-05T09:24:06.024Z,13.90
2022-10-05T09:26:40.741Z,14.10
2022-10-05T09:29:50.161Z,14.20
2022-10-05T09:32:51.672Z,14.20
2022-10-05T09:35:48.428Z,14.20
2022-10-05T09:38:29.105Z,14.30
2022-10-05T09:41:04.577Z,14.40
2022-10-05T09:44:14.032Z,14.70
2022-10-05T09:47:10.827Z,14.80
2022-10-05T09:50:02.244Z,14.90
2022-10-05T09:53:06.249Z,15.00
2022-10-05T09:56:01.266Z,15.00
2022-10-05T09:59:12.629Z,15.10
2022-10-05T10:02:06.396Z,15.20
2022-10-05T10:05:05.608Z,15.00
2022-10-05T10:07:55.102Z,15.00
2022-10-05T10:10:52.786Z,15.00
2022-10-05T10:13:42.002Z,15.10
2022-10-05T10:16:32.337Z,15.20
2022-10-05T10:19:45.814Z,15.40
2022-10-05T10:22:43.109Z,15.60
2022-10-05T10:25:37.095Z,15.60
2022-10-05T10:28:45.755Z,15.70
2022-10-05T10:31:28.834Z,15.70
2022-10-05T10:34:14.477Z,15.90
2022-10-05T10:37:01.234Z,16.00
2022-10-05T10:40:30.160Z,16.10
2022-10-05T10:43:31.023Z,16.30
2022-10-05T10:46:20.648Z,16.40
2022-10-05T10:49:25.672Z,16.60
2022-10-05T10:52:24.716Z,16.70
2022-10-05T10:55:21.249Z,16.80
2022-10-05T10:58:11.200Z,16.70
2022-10-05T11:01:11.229Z,16.70
2022-10-05T11:04:09.193Z,16.70
2022-10-05T11:06:52.542Z,16.90
2022-10-05T11:09:45.379Z,17.00
2022-10-05T11:12:35.379Z,17.00
2022-10-05T11:15:40.625Z,17.00
2022-10-05T11:18:29.852Z,16.90
2022-10-05T11:21:33.940Z,17.00
2022-10-05T11:24:54.702Z,17.10
2022-10-05T11:28:00.220Z,17.10
2022-10-05T11:31:05.989Z,17.30
2022-10-05T11:33:56.048Z,17.50
2022-10-05T11:36:46.768Z,17.60
2022-10-05T11:39:39.869Z,17.60
2022-10-05T11:42:56.408Z,17.70
2022-10-05T11:45:56.445Z,17.70
2022-10-05T11:48:38.845Z,17.70
2022-10-05T11:51:34.198Z,17.80
2022-10-05T11:55:09.368Z,17.90
2022-10-05T11:57:47.953Z,18.00
2022-10-05T12:00:22.524Z,18.10
2022-10-05T12:03:10.088Z,18.00
2022-10-05T12:06:14.485Z,18.00
2022-10-05T12:09:07.813Z,18.00
2022-10-05T12:12:27.083Z,18.00
2022-10-05T12:15:23.778Z,17.90
2022-10-05T12:18:17.636Z,17.80
2022-10-05T12:20:57.770Z,17.80
2022-10-05T12:23:42.059Z,17.80
2022-10-05T12:26:24.577Z,17.90
2022-10-05T12:29:08.688Z,17.90
2022-10-05T12:32:07.674Z,17.80
2022-10-05T12:35:01.800Z,17.80
2022-10-05T12:38:00.192Z,17.80
2022-10-05T12:40:46.204Z,17.80
2022-10-05T12:43:43.121Z,17.80
2022-10-05T12:46:46.013Z,17.70
2022-10-05T12:49:42.147Z,17.80
2022-10-05T12:53:00.563Z,18.00
2022-10-05T12:55:48.656Z,18.10
2022-10-05T12:58:49.138Z,18.20
2022-10-05T13:02:02.587Z,18.10
2022-10-05T13:04:48.045Z,18.10
2022-10-05T13:07:22.554Z,18.10
2022-10-05T13:10:14.238Z,18.10
2022-10-05T13:13:27.846Z,18.00
2022-10-05T13:16:18.021Z,18.10
2022-10-05T13:18:49.958Z,18.10
2022-10-05T13:21:55.216Z,18.10
2022-10-05T13:24:33.050Z,18.10
2022-10-05T13:27:18.090Z,18.30
2022-10-05T13:29:57.358Z,18.20
2022-10-05T13:32:39.010Z,18.10
2022-10-05T13:35:42.339Z,18.10
2022-10-05T13:38:36.318Z,18.00
2022-10-05T13:41:17.036Z,18.10
2022-10-05T13:44:15.281Z,18.00
2022-10-05T13:46:57.961Z,18.00
2022-10-05T13:49:38.683Z,18.00
2022-10-05T13:52:22.458Z,18.00
2022-10-05T13:55:15.715Z,18.00
2022-10-05T13:58:06.500Z,18.00
2022-10-05T14:00:57.787Z,17.90
2022-10-05T14:03:32.448Z,18.00
2022-10-05T14:06:30.692Z,18.00
2022-10-05T14:09:02.941Z,18.00
2022-10-05T14:11:36.204Z,17.90
2022-10-05T14:14:10.806Z,17.80
2022-10-05T14:19:51.102Z,17.80
2022-10-05T14:22:24.883Z,17.80
2022-10-05T14:25:02.805Z,17.80
2022-10-05T14:27:47.687Z,17.70
2022-10-05T14:30:23.913Z,17.70
2022-10-05T14:32:59.458Z,17.60
2022-10-05T14:35:48.948Z,17.60
2022-10-05T14:38:29.728Z,18.60
2022-10-05T14:41:27.904Z,17.70
2022-10-05T14:44:05.325Z,17.60
2022-10-05T14:46:39.417Z,17.50
2022-10-05T14:49:26.545Z,17.50
2022-10-05T14:51:58.756Z,17.50
2022-10-05T14:54:41.171Z,17.30
2022-10-05T14:57:23.183Z,17.30
2022-10-05T15:00:09.252Z,17.30
2022-10-05T15:02:49.823Z,17.20
2022-10-05T15:05:38.275Z,17.20
2022-10-05T15:08:22.890Z,17.10
2022-10-05T15:11:04.781Z,17.10
2022-10-05T15:13:42.485Z,17.00
2022-10-05T15:16:19.559Z,17.00
2022-10-05T15:18:59.528Z,16.90
2022-10-05T15:21:43.401Z,16.90
2022-10-05T15:24:20.234Z,16.90
2022-10-05T15:26:55.667Z,16.80
2022-10-05T15:29:30.286Z,16.70
2022-10-05T15:32:05.049Z,16.70
2022-10-05T15:35:07.783Z,16.60
2022-10-05T15:37:58.642Z,16.60
2022-10-05T15:41:07.135Z,16.50
2022-10-05T15:43:58.589Z,16.40
2022-10-05T15:46:56.487Z,16.40
2022-10-05T15:49:49.267Z,16.30
2022-10-05T15:52:24.033Z,16.20
2022-10-05T15:55:37.407Z,16.20
2022-10-05T15:58:31.180Z,16.10
2022-10-05T16:01:21.790Z,16.00
2022-10-05T16:03:53.469Z,16.20
2022-10-05T16:07:01.635Z,16.00
2022-10-05T16:09:46.128Z,15.90
2022-10-05T16:12:25.594Z,15.80
2022-10-05T16:15:03.589Z,15.80
2022-10-05T16:17:42.046Z,15.70
2022-10-05T16:20:27.056Z,13.70
2022-10-05T16:23:04.409Z,15.70
2022-10-05T16:25:40.044Z,15.60
2022-10-05T16:28:29.834Z,15.50
2022-10-05T16:31:08.855Z,15.40
2022-10-05T16:33:54.486Z,15.40
2022-10-05T16:36:47.217Z,15.30
2022-10-05T16:39:37.224Z,15.20
2022-10-05T16:42:36.513Z,15.20
2022-10-05T16:45:14.328Z,15.10
2022-10-05T16:48:02.085Z,15.10
2022-10-05T16:50:50.893Z,15.10
2022-10-05T16:53:28.610Z,15.00
2022-10-05T16:56:10.325Z,15.00
2022-10-05T16:58:50.398Z,14.90
2022-10-05T17:01:43.627Z,15.00
2022-10-05T17:04:39.468Z,14.90
2022-10-05T17:08:03.310Z,14.90
2022-10-05T17:10:41.071Z,14.80
2022-10-05T17:13:37.394Z,14.80
2022-10-05T17:16:20.474Z,14.70
2022-10-05T17:19:03.924Z,14.70
2022-10-05T17:21:46.149Z,14.70
2022-10-05T17:24:46.214Z,14.60
2022-10-05T17:27:36.744Z,14.60
2022-10-05T17:30:31.928Z,14.60
2022-10-05T17:33:13.978Z,14.50
2022-10-05T17:36:04.562Z,14.40
2022-10-05T17:39:12.163Z,14.40
2022-10-05T17:41:44.197Z,14.40
2022-10-05T17:44:24.348Z,14.40
2022-10-05T17:47:04.449Z,14.30
2022-10-05T17:50:18.087Z,14.30
2022-10-05T17:53:39.154Z,14.30
2022-10-05T17:56:10.969Z,14.30
2022-10-05T17:58:54.680Z,14.20
2022-10-05T18:01:33.899Z,14.20
2022-10-05T18:04:11.485Z,14.20
2022-10-05T18:06:52.671Z,14.20
2022-10-05T18:09:30.752Z,14.20
2022-10-05T18:12:27.261Z,14.20
2022-10-05T18:15:14.214Z,14.20
2022-10-05T18:17:54.737Z,14.10
2022-10-05T18:20:26.584Z,14.10
2022-10-05T18:23:07.073Z,14.10
2022-10-05T18:25:57.227Z,14.00
2022-10-05T18:28:56.994Z,14.70
2022-10-05T18:31:48.756Z,14.00
2022-10-05T18:34:37.886Z,14.00
2022-10-05T18:37:30.145Z,13.90
2022-10-05T18:40:26.509Z,14.00
2022-10-05T18:43:18.117Z,14.00
2022-10-05T18:45:59.331Z,13.90
2022-10-05T18:49:00.114Z,13.90
2022-10-05T18:51:48.409Z,13.90
2022-10-05T18:55:05.953Z,13.90
2022-10-05T18:58:07.820Z,13.90
2022-10-05T19:00:42.285Z,13.90
2022-10-05T19:03:39.808Z,13.80
2022-10-05T19:06:24.567Z,13.80
2022-10-05T19:09:24.562Z,13.80
2022-10-05T19:12:18.200Z,13.80
2022-10-05T19:15:13.777Z,13.90
2022-10-05T19:18:23.937Z,13.90
2022-10-05T19:21:14.586Z,13.90
2022-10-05T19:24:17.053Z,13.90
2022-10-05T19:27:07.295Z,13.80
2022-10-05T19:30:03.454Z,13.80
2022-10-05T19:32:53.513Z,13.70
2022-10-05T19:35:33.367Z,13.70
2022-10-05T19:38:15.976Z,13.70
2022-10-05T19:40:53.657Z,13.60
2022-10-05T19:43:40.144Z,13.60
2022-10-05T19:46:20.513Z,13.60
2022-10-05T19:48:54.091Z,13.60
2022-10-05T19:51:30.592Z,13.60
2022-10-05T19:54:13.657Z,13.70
2022-10-05T19:56:52.706Z,13.70
2022-10-05T19:59:32.340Z,13.70
2022-10-05T20:02:04.289Z,13.60
2022-10-05T20:04:41.993Z,13.60
2022-10-05T20:07:21.552Z,13.60
2022-10-05T20:10:22.447Z,13.60
2022-10-05T20:12:57.490Z,13.50
2022-10-05T20:15:50.533Z,13.40
2022-10-05T20:19:00.766Z,13.40
2022-10-05T20:21:51.899Z,13.40
2022-10-05T20:24:28.701Z,13.30
2022-10-05T20:27:02.541Z,13.40
2022-10-05T20:29:39.396Z,13.40
2022-10-05T20:32:13.613Z,13.30
2022-10-05T20:34:47.289Z,13.30
2022-10-05T20:37:20.104Z,13.20
2022-10-05T20:39:52.129Z,13.30
2022-10-05T20:42:24.004Z,13.20
2022-10-05T20:44:57.289Z,13.10
2022-10-05T20:47:29.167Z,13.10
2022-10-05T20:50:01.961Z,13.10
2022-10-05T20:52:33.715Z,13.10
2022-10-05T20:55:08.700Z,13.10
2022-10-05T20:57:43.571Z,13.00
2022-10-05T21:00:15.553Z,12.90
2022-10-05T21:02:47.293Z,12.90
2022-10-05T21:05:19.101Z,12.90
2022-10-05T21:07:50.852Z,12.90
2022-10-05T21:10:22.602Z,12.90
2022-10-05T21:12:54.310Z,12.80
2022-10-05T21:15:26.052Z,12.80
2022-10-05T21:17:57.770Z,12.70
2022-10-05T21:20:29.504Z,12.60
2022-10-05T21:23:01.229Z,12.60
2022-10-05T21:25:33.787Z,12.50
2022-10-05T21:28:06.332Z,12.50
2022-10-05T21:30:38.122Z,12.50
2022-10-05T21:33:09.869Z,12.40
2022-10-05T21:35:41.584Z,12.40
2022-10-05T21:38:13.567Z,12.30
2022-10-05T21:40:45.531Z,12.30
2022-10-05T21:43:17.753Z,12.30
2022-10-05T21:45:49.566Z,12.30
2022-10-05T21:48:22.396Z,12.30
2022-10-05T21:50:54.529Z,12.30
2022-10-05T21:53:30.409Z,12.30
2022-10-05T21:56:05.491Z,12.30
2022-10-05T21:58:38.052Z,12.40
2022-10-05T22:01:09.882Z,12.40
2022-10-05T22:03:42.105Z,12.30
2022-10-05T22:06:14.051Z,12.30
2022-10-05T22:08:45.994Z,12.30
2022-10-05T22:11:18.385Z,12.20
2022-10-05T22:13:52.521Z,12.20
2022-10-05T22:16:24.415Z,12.20
2022-10-05T22:18:56.234Z,12.20
2022-10-05T22:21:27.992Z,12.20
2022-10-05T22:24:00.214Z,12.10
2022-10-05T22:26:32.392Z,12.10
2022-10-05T22:29:04.737Z,12.00
2022-10-05T22:31:36.870Z,12.00
2022-10-05T22:34:08.821Z,12.00
2022-10-05T22:36:41.825Z,12.00
2022-10-05T22:39:14.263Z,12.00
2022-10-05T22:41:46.438Z,12.00
2022-10-05T22:44:18.221Z,12.00
2022-10-05T22:46:50.150Z,12.00
2022-10-05T22:49:22.009Z,11.90
2022-10-05T22:51:54.776Z,11.90
2022-10-05T22:54:30.014Z,11.80
2022-10-05T22:57:03.070Z,11.70
2022-10-05T22:59:34.833Z,11.70
2022-10-05T23:02:06.700Z,11.70
2022-10-05T23:04:38.433Z,11.70
2022-10-05T23:07:10.161Z,11.70
2022-10-05T23:09:41.953Z,11.60
2022-10-05T23:12:14.278Z,11.60
2022-10-05T23:14:45.977Z,11.60
2022-10-05T23:17:20.956Z,11.60
2022-10-05T23:19:53.670Z,11.60
2022-10-05T23:22:25.505Z,11.50
2022-10-05T23:24:57.209Z,11.50
2022-10-05T23:27:28.934Z,11.50
2022-10-05T23:30:00.638Z,11.40
2022-10-05T23:32:32.419Z,11.40
2022-10-05T23:35:05.268Z,11.40
2022-10-05T23:37:42.703Z,9.10
2022-10-05T23:40:14.689Z,11.40
2022-10-05T23:42:46.961Z,11.40
2022-10-05T23:45:18.668Z,11.40
2022-10-05T23:47:50.402Z,11.30
2022-10-05T23:50:24.829Z,11.30
2022-10-05T23:52:56.542Z,11.20
2022-10-05T23:55:28.317Z,11.20
2022-10-05T23:58:00.101Z,11.20
